sensor_id;sensor_type;location;lat;lon;timestamp;P1;durP1;ratioP1;P2;durP2;ratioP2
58208;SDS011;44006;52.028;4.696;2023-04-24T00:01:35;3.55;;;2.30;;
58208;SDS011;44006;52.028;4.696;2023-04-24T00:04:02;7.07;;;2.53;;
58208;SDS011;44006;52.028;4.696;2023-04-24T00:06:28;6.13;;;2.70;;
58208;SDS011;44006;52.028;4.696;2023-04-24T00:09:00;6.13;;;3.58;;
58208;SDS011;44006;52.028;4.696;2023-04-24T00:11:26;6.90;;;3.40;;
58208;SDS011;44006;52.028;4.696;2023-04-24T00:13:51;6.15;;;3.50;;
58208;SDS011;44006;52.028;4.696;2023-04-24T00:16:17;5.55;;;3.50;;
58208;SDS011;44006;52.028;4.696;2023-04-24T00:18:42;9.13;;;4.30;;
58208;SDS011;44006;52.028;4.696;2023-04-24T00:21:07;9.77;;;4.20;;
58208;SDS011;44006;52.028;4.696;2023-04-24T00:23:32;6.63;;;3.90;;
58208;SDS011;44006;52.028;4.696;2023-04-24T00:25:58;7.22;;;4.05;;
58208;SDS011;44006;52.028;4.696;2023-04-24T00:28:23;6.78;;;4.38;;
58208;SDS011;44006;52.028;4.696;2023-04-24T00:30:48;8.65;;;4.03;;
58208;SDS011;44006;52.028;4.696;2023-04-24T00:33:15;8.45;;;4.05;;
58208;SDS011;44006;52.028;4.696;2023-04-24T00:35:40;7.45;;;5.07;;
58208;SDS011;44006;52.028;4.696;2023-04-24T00:38:05;7.53;;;4.90;;
58208;SDS011;44006;52.028;4.696;2023-04-24T00:40:30;8.20;;;5.47;;
58208;SDS011;44006;52.028;4.696;2023-04-24T00:42:56;11.05;;;5.10;;
58208;SDS011;44006;52.028;4.696;2023-04-24T00:45:21;9.18;;;5.60;;
58208;SDS011;44006;52.028;4.696;2023-04-24T00:47:46;11.57;;;6.97;;
58208;SDS011;44006;52.028;4.696;2023-04-24T00:50:14;9.18;;;5.90;;
58208;SDS011;44006;52.028;4.696;2023-04-24T00:52:40;11.23;;;6.35;;
58208;SDS011;44006;52.028;4.696;2023-04-24T00:55:06;15.10;;;5.57;;
58208;SDS011;44006;52.028;4.696;2023-04-24T00:57:32;10.25;;;5.68;;
58208;SDS011;44006;52.028;4.696;2023-04-24T00:59:57;11.63;;;6.78;;
58208;SDS011;44006;52.028;4.696;2023-04-24T01:02:23;10.57;;;6.60;;
58208;SDS011;44006;52.028;4.696;2023-04-24T01:04:50;11.52;;;6.28;;
58208;SDS011;44006;52.028;4.696;2023-04-24T01:07:16;13.32;;;7.75;;
58208;SDS011;44006;52.028;4.696;2023-04-24T01:09:42;10.23;;;7.07;;
58208;SDS011;44006;52.028;4.696;2023-04-24T01:12:08;9.02;;;6.40;;
58208;SDS011;44006;52.028;4.696;2023-04-24T01:14:34;9.25;;;5.47;;
58208;SDS011;44006;52.028;4.696;2023-04-24T01:16:59;11.15;;;5.55;;
58208;SDS011;44006;52.028;4.696;2023-04-24T01:19:26;10.07;;;5.03;;
58208;SDS011;44006;52.028;4.696;2023-04-24T01:21:52;7.22;;;4.82;;
58208;SDS011;44006;52.028;4.696;2023-04-24T01:24:19;8.70;;;4.68;;
58208;SDS011;44006;52.028;4.696;2023-04-24T01:26:45;7.88;;;4.80;;
58208;SDS011;44006;52.028;4.696;2023-04-24T01:29:10;8.75;;;4.75;;
58208;SDS011;44006;52.028;4.696;2023-04-24T01:31:35;7.47;;;5.18;;
58208;SDS011;44006;52.028;4.696;2023-04-24T01:34:01;8.57;;;4.90;;
58208;SDS011;44006;52.028;4.696;2023-04-24T01:36:26;8.65;;;4.80;;
58208;SDS011;44006;52.028;4.696;2023-04-24T01:38:52;6.13;;;4.55;;
58208;SDS011;44006;52.028;4.696;2023-04-24T01:41:17;7.63;;;4.30;;
58208;SDS011;44006;52.028;4.696;2023-04-24T01:43:43;7.38;;;4.20;;
58208;SDS011;44006;52.028;4.696;2023-04-24T01:46:11;7.07;;;3.58;;
58208;SDS011;44006;52.028;4.696;2023-04-24T01:48:36;8.93;;;3.80;;
58208;SDS011;44006;52.028;4.696;2023-04-24T01:51:01;3.85;;;2.75;;
58208;SDS011;44006;52.028;4.696;2023-04-24T01:53:27;4.35;;;2.45;;
58208;SDS011;44006;52.028;4.696;2023-04-24T01:55:52;5.78;;;2.33;;
58208;SDS011;44006;52.028;4.696;2023-04-24T01:58:18;4.32;;;2.40;;
58208;SDS011;44006;52.028;4.696;2023-04-24T02:00:44;6.10;;;2.15;;
58208;SDS011;44006;52.028;4.696;2023-04-24T02:03:09;4.95;;;2.55;;
58208;SDS011;44006;52.028;4.696;2023-04-24T02:05:34;6.65;;;3.13;;
58208;SDS011;44006;52.028;4.696;2023-04-24T02:08:00;9.07;;;2.92;;
58208;SDS011;44006;52.028;4.696;2023-04-24T02:10:25;6.57;;;3.10;;
58208;SDS011;44006;52.028;4.696;2023-04-24T02:12:50;4.40;;;2.83;;
58208;SDS011;44006;52.028;4.696;2023-04-24T02:15:16;6.22;;;3.13;;
58208;SDS011;44006;52.028;4.696;2023-04-24T02:17:41;5.40;;;2.75;;
58208;SDS011;44006;52.028;4.696;2023-04-24T02:20:07;4.85;;;3.10;;
58208;SDS011;44006;52.028;4.696;2023-04-24T02:22:32;5.68;;;3.28;;
58208;SDS011;44006;52.028;4.696;2023-04-24T02:24:57;6.80;;;4.32;;
58208;SDS011;44006;52.028;4.696;2023-04-24T02:27:23;7.07;;;3.53;;
58208;SDS011;44006;52.028;4.696;2023-04-24T02:29:48;7.00;;;3.78;;
58208;SDS011;44006;52.028;4.696;2023-04-24T02:32:13;6.88;;;4.30;;
58208;SDS011;44006;52.028;4.696;2023-04-24T02:34:40;7.25;;;3.60;;
58208;SDS011;44006;52.028;4.696;2023-04-24T02:37:05;8.98;;;4.57;;
58208;SDS011;44006;52.028;4.696;2023-04-24T02:39:30;13.13;;;5.22;;
58208;SDS011;44006;52.028;4.696;2023-04-24T02:41:58;7.10;;;4.10;;
58208;SDS011;44006;52.028;4.696;2023-04-24T02:44:23;8.32;;;4.88;;
58208;SDS011;44006;52.028;4.696;2023-04-24T02:46:48;9.35;;;4.70;;
58208;SDS011;44006;52.028;4.696;2023-04-24T02:49:14;7.32;;;4.07;;
58208;SDS011;44006;52.028;4.696;2023-04-24T02:51:39;9.07;;;5.32;;
58208;SDS011;44006;52.028;4.696;2023-04-24T02:54:06;6.57;;;3.83;;
58208;SDS011;44006;52.028;4.696;2023-04-24T02:56:31;6.18;;;3.90;;
58208;SDS011;44006;52.028;4.696;2023-04-24T02:58:57;8.00;;;4.32;;
58208;SDS011;44006;52.028;4.696;2023-04-24T03:01:22;7.72;;;3.88;;
58208;SDS011;44006;52.028;4.696;2023-04-24T03:03:47;6.75;;;3.90;;
58208;SDS011;44006;52.028;4.696;2023-04-24T03:06:12;8.25;;;4.32;;
58208;SDS011;44006;52.028;4.696;2023-04-24T03:08:38;7.57;;;3.60;;
58208;SDS011;44006;52.028;4.696;2023-04-24T03:11:03;4.82;;;3.00;;
58208;SDS011;44006;52.028;4.696;2023-04-24T03:13:28;4.47;;;2.80;;
58208;SDS011;44006;52.028;4.696;2023-04-24T03:15:54;6.63;;;2.22;;
58208;SDS011;44006;52.028;4.696;2023-04-24T03:18:19;4.13;;;1.77;;
58208;SDS011;44006;52.028;4.696;2023-04-24T03:20:45;3.28;;;1.90;;
58208;SDS011;44006;52.028;4.696;2023-04-24T03:23:11;4.38;;;1.92;;
58208;SDS011;44006;52.028;4.696;2023-04-24T03:25:36;4.20;;;1.33;;
58208;SDS011;44006;52.028;4.696;2023-04-24T03:28:02;3.53;;;1.13;;
58208;SDS011;44006;52.028;4.696;2023-04-24T03:30:28;3.00;;;1.10;;
58208;SDS011;44006;52.028;4.696;2023-04-24T03:32:53;2.40;;;1.10;;
58208;SDS011;44006;52.028;4.696;2023-04-24T03:35:21;4.15;;;1.08;;
58208;SDS011;44006;52.028;4.696;2023-04-24T03:37:47;4.38;;;1.40;;
58208;SDS011;44006;52.028;4.696;2023-04-24T03:40:12;3.85;;;1.58;;
58208;SDS011;44006;52.028;4.696;2023-04-24T03:42:38;4.28;;;1.20;;
58208;SDS011;44006;52.028;4.696;2023-04-24T03:45:04;4.85;;;1.70;;
58208;SDS011;44006;52.028;4.696;2023-04-24T03:47:29;3.35;;;1.08;;
58208;SDS011;44006;52.028;4.696;2023-04-24T03:49:54;4.75;;;1.15;;
58208;SDS011;44006;52.028;4.696;2023-04-24T03:52:21;3.17;;;1.10;;
58208;SDS011;44006;52.028;4.696;2023-04-24T03:54:47;5.45;;;1.10;;
58208;SDS011;44006;52.028;4.696;2023-04-24T03:57:12;2.60;;;1.00;;
58208;SDS011;44006;52.028;4.696;2023-04-24T03:59:38;5.45;;;1.05;;
58208;SDS011;44006;52.028;4.696;2023-04-24T04:02:04;3.83;;;1.08;;
58208;SDS011;44006;52.028;4.696;2023-04-24T04:04:29;2.55;;;0.90;;
58208;SDS011;44006;52.028;4.696;2023-04-24T04:06:54;3.75;;;0.82;;
58208;SDS011;44006;52.028;4.696;2023-04-24T04:09:20;4.40;;;0.77;;
58208;SDS011;44006;52.028;4.696;2023-04-24T04:11:45;2.10;;;0.68;;
58208;SDS011;44006;52.028;4.696;2023-04-24T04:14:10;3.42;;;0.90;;
58208;SDS011;44006;52.028;4.696;2023-04-24T04:16:35;3.95;;;0.80;;
58208;SDS011;44006;52.028;4.696;2023-04-24T04:19:01;4.28;;;0.88;;
58208;SDS011;44006;52.028;4.696;2023-04-24T04:21:27;2.70;;;0.77;;
58208;SDS011;44006;52.028;4.696;2023-04-24T04:23:53;5.18;;;1.00;;
58208;SDS011;44006;52.028;4.696;2023-04-24T04:26:18;7.38;;;1.05;;
58208;SDS011;44006;52.028;4.696;2023-04-24T04:28:45;5.55;;;1.13;;
58208;SDS011;44006;52.028;4.696;2023-04-24T04:31:10;5.15;;;0.90;;
58208;SDS011;44006;52.028;4.696;2023-04-24T04:33:35;6.20;;;1.50;;
58208;SDS011;44006;52.028;4.696;2023-04-24T04:36:03;2.40;;;0.90;;
58208;SDS011;44006;52.028;4.696;2023-04-24T04:38:29;2.47;;;0.80;;
58208;SDS011;44006;52.028;4.696;2023-04-24T04:40:55;4.53;;;0.85;;
58208;SDS011;44006;52.028;4.696;2023-04-24T04:43:23;4.70;;;1.05;;
58208;SDS011;44006;52.028;4.696;2023-04-24T04:45:49;6.20;;;0.88;;
58208;SDS011;44006;52.028;4.696;2023-04-24T04:48:14;5.53;;;0.80;;
58208;SDS011;44006;52.028;4.696;2023-04-24T04:50:42;2.10;;;0.77;;
58208;SDS011;44006;52.028;4.696;2023-04-24T04:53:08;3.10;;;1.20;;
58208;SDS011;44006;52.028;4.696;2023-04-24T04:55:33;2.25;;;1.00;;
58208;SDS011;44006;52.028;4.696;2023-04-24T04:57:58;5.82;;;1.63;;
58208;SDS011;44006;52.028;4.696;2023-04-24T05:00:25;6.45;;;2.33;;
58208;SDS011;44006;52.028;4.696;2023-04-24T05:02:50;6.10;;;2.10;;
58208;SDS011;44006;52.028;4.696;2023-04-24T05:05:16;5.00;;;2.00;;
58208;SDS011;44006;52.028;4.696;2023-04-24T05:07:43;6.20;;;2.33;;
58208;SDS011;44006;52.028;4.696;2023-04-24T05:10:10;5.95;;;2.95;;
58208;SDS011;44006;52.028;4.696;2023-04-24T05:12:36;8.32;;;4.20;;
58208;SDS011;44006;52.028;4.696;2023-04-24T05:15:02;7.35;;;4.25;;
58208;SDS011;44006;52.028;4.696;2023-04-24T05:17:27;10.40;;;4.57;;
58208;SDS011;44006;52.028;4.696;2023-04-24T05:19:53;13.98;;;3.92;;
58208;SDS011;44006;52.028;4.696;2023-04-24T05:22:20;7.68;;;3.60;;
58208;SDS011;44006;52.028;4.696;2023-04-24T05:24:46;11.63;;;4.57;;
58208;SDS011;44006;52.028;4.696;2023-04-24T05:27:12;13.75;;;5.15;;
58208;SDS011;44006;52.028;4.696;2023-04-24T05:29:39;15.23;;;6.20;;
58208;SDS011;44006;52.028;4.696;2023-04-24T05:32:05;14.50;;;7.95;;
58208;SDS011;44006;52.028;4.696;2023-04-24T05:34:31;15.05;;;8.73;;
58208;SDS011;44006;52.028;4.696;2023-04-24T05:36:56;17.10;;;9.85;;
58208;SDS011;44006;52.028;4.696;2023-04-24T05:39:23;20.52;;;10.85;;
58208;SDS011;44006;52.028;4.696;2023-04-24T05:41:50;23.67;;;13.13;;
58208;SDS011;44006;52.028;4.696;2023-04-24T05:44:15;24.27;;;13.02;;
58208;SDS011;44006;52.028;4.696;2023-04-24T05:46:40;29.63;;;13.90;;
58208;SDS011;44006;52.028;4.696;2023-04-24T05:49:06;29.08;;;14.82;;
58208;SDS011;44006;52.028;4.696;2023-04-24T05:51:31;27.75;;;14.77;;
58208;SDS011;44006;52.028;4.696;2023-04-24T05:53:56;29.60;;;14.30;;
58208;SDS011;44006;52.028;4.696;2023-04-24T05:56:22;26.08;;;14.18;;
58208;SDS011;44006;52.028;4.696;2023-04-24T05:58:47;29.45;;;13.70;;
58208;SDS011;44006;52.028;4.696;2023-04-24T06:01:13;22.17;;;13.18;;
58208;SDS011;44006;52.028;4.696;2023-04-24T06:03:40;24.33;;;12.77;;
58208;SDS011;44006;52.028;4.696;2023-04-24T06:06:07;24.40;;;12.88;;
58208;SDS011;44006;52.028;4.696;2023-04-24T06:08:33;28.73;;;13.02;;
58208;SDS011;44006;52.028;4.696;2023-04-24T06:10:58;26.33;;;13.25;;
58208;SDS011;44006;52.028;4.696;2023-04-24T06:13:24;23.00;;;11.57;;
58208;SDS011;44006;52.028;4.696;2023-04-24T06:15:50;33.08;;;13.05;;
58208;SDS011;44006;52.028;4.696;2023-04-24T06:18:15;29.52;;;13.48;;
58208;SDS011;44006;52.028;4.696;2023-04-24T06:20:40;24.45;;;12.57;;
58208;SDS011;44006;52.028;4.696;2023-04-24T06:23:06;25.30;;;12.82;;
58208;SDS011;44006;52.028;4.696;2023-04-24T06:25:31;26.63;;;12.88;;
58208;SDS011;44006;52.028;4.696;2023-04-24T06:27:56;25.17;;;11.02;;
58208;SDS011;44006;52.028;4.696;2023-04-24T06:30:22;36.40;;;11.07;;
58208;SDS011;44006;52.028;4.696;2023-04-24T06:32:47;26.65;;;10.88;;
58208;SDS011;44006;52.028;4.696;2023-04-24T06:35:12;28.75;;;10.00;;
58208;SDS011;44006;52.028;4.696;2023-04-24T06:37:41;32.78;;;9.32;;
58208;SDS011;44006;52.028;4.696;2023-04-24T06:40:06;30.58;;;8.98;;
58208;SDS011;44006;52.028;4.696;2023-04-24T06:42:32;29.88;;;10.63;;
58208;SDS011;44006;52.028;4.696;2023-04-24T06:44:57;26.63;;;8.80;;
58208;SDS011;44006;52.028;4.696;2023-04-24T06:47:22;28.92;;;9.13;;
58208;SDS011;44006;52.028;4.696;2023-04-24T06:49:49;26.88;;;8.82;;
58208;SDS011;44006;52.028;4.696;2023-04-24T06:52:16;32.20;;;8.60;;
58208;SDS011;44006;52.028;4.696;2023-04-24T06:54:41;27.33;;;8.10;;
58208;SDS011;44006;52.028;4.696;2023-04-24T06:57:06;29.75;;;9.13;;
58208;SDS011;44006;52.028;4.696;2023-04-24T06:59:32;22.33;;;7.35;;
58208;SDS011;44006;52.028;4.696;2023-04-24T07:01:57;32.40;;;8.55;;
58208;SDS011;44006;52.028;4.696;2023-04-24T07:04:23;25.77;;;7.50;;
58208;SDS011;44006;52.028;4.696;2023-04-24T07:06:50;22.10;;;7.40;;
58208;SDS011;44006;52.028;4.696;2023-04-24T07:09:17;23.58;;;6.80;;
58208;SDS011;44006;52.028;4.696;2023-04-24T07:11:45;29.50;;;7.30;;
58208;SDS011;44006;52.028;4.696;2023-04-24T07:14:11;14.65;;;5.20;;
58208;SDS011;44006;52.028;4.696;2023-04-24T07:16:36;23.58;;;5.68;;
58208;SDS011;44006;52.028;4.696;2023-04-24T07:19:01;23.27;;;5.28;;
58208;SDS011;44006;52.028;4.696;2023-04-24T07:21:27;21.00;;;4.95;;
58208;SDS011;44006;52.028;4.696;2023-04-24T07:23:53;23.58;;;4.97;;
58208;SDS011;44006;52.028;4.696;2023-04-24T07:26:21;28.00;;;5.20;;
58208;SDS011;44006;52.028;4.696;2023-04-24T07:28:46;25.35;;;4.95;;
58208;SDS011;44006;52.028;4.696;2023-04-24T07:31:12;27.63;;;5.70;;
58208;SDS011;44006;52.028;4.696;2023-04-24T07:33:37;22.23;;;4.90;;
58208;SDS011;44006;52.028;4.696;2023-04-24T07:36:03;22.45;;;5.18;;
58208;SDS011;44006;52.028;4.696;2023-04-24T07:38:31;24.50;;;5.07;;
58208;SDS011;44006;52.028;4.696;2023-04-24T07:40:56;21.77;;;4.65;;
58208;SDS011;44006;52.028;4.696;2023-04-24T07:43:23;22.02;;;4.70;;
58208;SDS011;44006;52.028;4.696;2023-04-24T07:45:49;18.00;;;4.88;;
58208;SDS011;44006;52.028;4.696;2023-04-24T07:48:14;24.15;;;4.43;;
58208;SDS011;44006;52.028;4.696;2023-04-24T07:50:41;22.27;;;4.72;;
58208;SDS011;44006;52.028;4.696;2023-04-24T07:53:09;25.33;;;5.72;;
58208;SDS011;44006;52.028;4.696;2023-04-24T07:55:35;22.20;;;4.35;;
58208;SDS011;44006;52.028;4.696;2023-04-24T07:58:00;23.88;;;4.75;;
58208;SDS011;44006;52.028;4.696;2023-04-24T08:00:25;21.45;;;3.75;;
58208;SDS011;44006;52.028;4.696;2023-04-24T08:02:51;19.38;;;3.75;;
58208;SDS011;44006;52.028;4.696;2023-04-24T08:05:16;20.65;;;4.20;;
58208;SDS011;44006;52.028;4.696;2023-04-24T08:07:41;18.63;;;4.50;;
58208;SDS011;44006;52.028;4.696;2023-04-24T08:10:11;26.05;;;4.40;;
58208;SDS011;44006;52.028;4.696;2023-04-24T08:12:36;13.18;;;3.70;;
58208;SDS011;44006;52.028;4.696;2023-04-24T08:15:02;20.52;;;4.32;;
58208;SDS011;44006;52.028;4.696;2023-04-24T08:17:27;23.48;;;4.18;;
58208;SDS011;44006;52.028;4.696;2023-04-24T08:19:53;19.67;;;3.60;;
58208;SDS011;44006;52.028;4.696;2023-04-24T08:22:24;20.92;;;3.58;;
58208;SDS011;44006;52.028;4.696;2023-04-24T08:24:49;25.23;;;4.25;;
58208;SDS011;44006;52.028;4.696;2023-04-24T08:27:15;21.23;;;3.90;;
58208;SDS011;44006;52.028;4.696;2023-04-24T08:29:40;22.00;;;4.10;;
58208;SDS011;44006;52.028;4.696;2023-04-24T08:32:05;15.88;;;3.80;;
58208;SDS011;44006;52.028;4.696;2023-04-24T08:34:31;18.75;;;4.00;;
58208;SDS011;44006;52.028;4.696;2023-04-24T08:36:58;14.40;;;3.55;;
58208;SDS011;44006;52.028;4.696;2023-04-24T08:39:24;15.23;;;4.20;;
58208;SDS011;44006;52.028;4.696;2023-04-24T08:41:49;15.82;;;3.97;;
58208;SDS011;44006;52.028;4.696;2023-04-24T08:44:15;17.08;;;4.30;;
58208;SDS011;44006;52.028;4.696;2023-04-24T08:46:42;11.20;;;3.65;;
58208;SDS011;44006;52.028;4.696;2023-04-24T08:49:08;10.88;;;3.33;;
58208;SDS011;44006;52.028;4.696;2023-04-24T08:51:33;14.73;;;4.30;;
58208;SDS011;44006;52.028;4.696;2023-04-24T08:54:00;13.52;;;3.80;;
58208;SDS011;44006;52.028;4.696;2023-04-24T08:56:28;12.23;;;3.08;;
58208;SDS011;44006;52.028;4.696;2023-04-24T08:58:56;11.57;;;3.13;;
58208;SDS011;44006;52.028;4.696;2023-04-24T09:01:21;15.05;;;2.80;;
58208;SDS011;44006;52.028;4.696;2023-04-24T09:03:49;14.88;;;3.33;;
58208;SDS011;44006;52.028;4.696;2023-04-24T09:06:14;19.27;;;3.63;;
58208;SDS011;44006;52.028;4.696;2023-04-24T09:08:41;12.57;;;2.75;;
58208;SDS011;44006;52.028;4.696;2023-04-24T09:11:07;15.20;;;3.63;;
58208;SDS011;44006;52.028;4.696;2023-04-24T09:13:32;14.02;;;3.60;;
58208;SDS011;44006;52.028;4.696;2023-04-24T09:15:58;15.45;;;3.50;;
58208;SDS011;44006;52.028;4.696;2023-04-24T09:18:25;9.10;;;2.47;;
58208;SDS011;44006;52.028;4.696;2023-04-24T09:20:58;12.25;;;2.28;;
58208;SDS011;44006;52.028;4.696;2023-04-24T09:23:27;9.75;;;2.45;;
58208;SDS011;44006;52.028;4.696;2023-04-24T09:25:55;10.75;;;2.20;;
58208;SDS011;44006;52.028;4.696;2023-04-24T09:28:25;8.02;;;2.10;;
58208;SDS011;44006;52.028;4.696;2023-04-24T09:31:01;8.70;;;2.10;;
58208;SDS011;44006;52.028;4.696;2023-04-24T09:33:26;7.22;;;1.67;;
58208;SDS011;44006;52.028;4.696;2023-04-24T09:35:52;5.65;;;1.60;;
58208;SDS011;44006;52.028;4.696;2023-04-24T09:38:17;6.60;;;1.80;;
58208;SDS011;44006;52.028;4.696;2023-04-24T09:40:43;5.70;;;1.70;;
58208;SDS011;44006;52.028;4.696;2023-04-24T09:43:11;5.28;;;1.30;;
58208;SDS011;44006;52.028;4.696;2023-04-24T09:45:37;10.18;;;2.05;;
58208;SDS011;44006;52.028;4.696;2023-04-24T09:48:03;7.15;;;1.75;;
58208;SDS011;44006;52.028;4.696;2023-04-24T09:50:29;8.82;;;1.42;;
58208;SDS011;44006;52.028;4.696;2023-04-24T09:52:57;5.38;;;1.58;;
58208;SDS011;44006;52.028;4.696;2023-04-24T09:55:24;10.02;;;1.58;;
58208;SDS011;44006;52.028;4.696;2023-04-24T09:57:53;8.90;;;1.50;;
58208;SDS011;44006;52.028;4.696;2023-04-24T10:00:24;7.40;;;1.35;;
58208;SDS011;44006;52.028;4.696;2023-04-24T10:02:50;11.52;;;1.27;;
58208;SDS011;44006;52.028;4.696;2023-04-24T10:05:17;7.38;;;1.40;;
58208;SDS011;44006;52.028;4.696;2023-04-24T10:07:43;7.22;;;1.90;;
58208;SDS011;44006;52.028;4.696;2023-04-24T10:10:08;8.10;;;1.30;;
58208;SDS011;44006;52.028;4.696;2023-04-24T10:12:35;6.82;;;1.20;;
58208;SDS011;44006;52.028;4.696;2023-04-24T10:15:00;8.35;;;1.40;;
58208;SDS011;44006;52.028;4.696;2023-04-24T10:17:26;10.05;;;1.77;;
58208;SDS011;44006;52.028;4.696;2023-04-24T10:19:53;6.22;;;1.48;;
58208;SDS011;44006;52.028;4.696;2023-04-24T10:22:18;10.13;;;1.50;;
58208;SDS011;44006;52.028;4.696;2023-04-24T10:24:44;5.28;;;1.30;;
58208;SDS011;44006;52.028;4.696;2023-04-24T10:27:10;10.75;;;1.52;;
58208;SDS011;44006;52.028;4.696;2023-04-24T10:29:36;4.88;;;1.30;;
58208;SDS011;44006;52.028;4.696;2023-04-24T10:32:03;7.65;;;1.67;;
58208;SDS011;44006;52.028;4.696;2023-04-24T10:34:31;6.78;;;1.50;;
58208;SDS011;44006;52.028;4.696;2023-04-24T10:36:56;7.22;;;1.27;;
58208;SDS011;44006;52.028;4.696;2023-04-24T10:39:22;4.15;;;1.27;;
58208;SDS011;44006;52.028;4.696;2023-04-24T10:41:48;6.55;;;1.35;;
58208;SDS011;44006;52.028;4.696;2023-04-24T10:44:14;7.53;;;0.95;;
58208;SDS011;44006;52.028;4.696;2023-04-24T10:46:43;8.27;;;1.55;;
58208;SDS011;44006;52.028;4.696;2023-04-24T10:49:09;11.45;;;1.60;;
58208;SDS011;44006;52.028;4.696;2023-04-24T10:51:48;11.13;;;1.55;;
58208;SDS011;44006;52.028;4.696;2023-04-24T10:54:26;10.57;;;1.63;;
58208;SDS011;44006;52.028;4.696;2023-04-24T10:56:52;11.60;;;2.00;;
58208;SDS011;44006;52.028;4.696;2023-04-24T10:59:24;11.07;;;2.05;;
58208;SDS011;44006;52.028;4.696;2023-04-24T11:01:53;8.63;;;1.80;;
58208;SDS011;44006;52.028;4.696;2023-04-24T11:04:28;10.75;;;1.83;;
58208;SDS011;44006;52.028;4.696;2023-04-24T11:06:54;10.55;;;2.92;;
58208;SDS011;44006;52.028;4.696;2023-04-24T11:09:19;11.35;;;1.92;;
58208;SDS011;44006;52.028;4.696;2023-04-24T11:11:46;5.93;;;1.70;;
58208;SDS011;44006;52.028;4.696;2023-04-24T11:14:14;10.55;;;1.80;;
58208;SDS011;44006;52.028;4.696;2023-04-24T11:16:52;11.48;;;1.77;;
58208;SDS011;44006;52.028;4.696;2023-04-24T11:19:20;10.35;;;1.85;;
58208;SDS011;44006;52.028;4.696;2023-04-24T11:21:46;12.63;;;2.15;;
58208;SDS011;44006;52.028;4.696;2023-04-24T11:26:54;9.55;;;1.58;;
58208;SDS011;44006;52.028;4.696;2023-04-24T11:29:20;8.35;;;1.50;;
58208;SDS011;44006;52.028;4.696;2023-04-24T11:31:46;4.97;;;1.30;;
58208;SDS011;44006;52.028;4.696;2023-04-24T11:34:15;8.45;;;1.50;;
58208;SDS011;44006;52.028;4.696;2023-04-24T11:36:46;12.02;;;1.63;;
58208;SDS011;44006;52.028;4.696;2023-04-24T11:39:13;9.05;;;1.45;;
58208;SDS011;44006;52.028;4.696;2023-04-24T11:41:38;6.30;;;1.55;;
58208;SDS011;44006;52.028;4.696;2023-04-24T11:44:05;6.00;;;1.40;;
58208;SDS011;44006;52.028;4.696;2023-04-24T11:46:31;11.07;;;1.92;;
58208;SDS011;44006;52.028;4.696;2023-04-24T11:48:57;10.32;;;2.03;;
58208;SDS011;44006;52.028;4.696;2023-04-24T11:51:23;9.93;;;1.83;;
58208;SDS011;44006;52.028;4.696;2023-04-24T11:53:49;11.40;;;1.98;;
58208;SDS011;44006;52.028;4.696;2023-04-24T11:56:17;7.07;;;1.60;;
58208;SDS011;44006;52.028;4.696;2023-04-24T11:58:44;10.98;;;1.70;;
58208;SDS011;44006;52.028;4.696;2023-04-24T12:01:09;6.28;;;1.75;;
58208;SDS011;44006;52.028;4.696;2023-04-24T12:03:34;13.05;;;3.03;;
58208;SDS011;44006;52.028;4.696;2023-04-24T12:06:06;11.85;;;2.30;;
58208;SDS011;44006;52.028;4.696;2023-04-24T12:08:32;9.02;;;2.47;;
58208;SDS011;44006;52.028;4.696;2023-04-24T12:10:58;10.27;;;2.08;;
58208;SDS011;44006;52.028;4.696;2023-04-24T12:13:30;12.20;;;2.45;;
58208;SDS011;44006;52.028;4.696;2023-04-24T12:15:59;15.05;;;2.90;;
58208;SDS011;44006;52.028;4.696;2023-04-24T12:18:25;9.50;;;2.33;;
58208;SDS011;44006;52.028;4.696;2023-04-24T12:20:50;16.25;;;2.92;;
58208;SDS011;44006;52.028;4.696;2023-04-24T12:23:15;14.30;;;2.67;;
58208;SDS011;44006;52.028;4.696;2023-04-24T12:25:42;11.10;;;2.47;;
58208;SDS011;44006;52.028;4.696;2023-04-24T12:28:08;12.52;;;2.95;;
58208;SDS011;44006;52.028;4.696;2023-04-24T12:30:41;11.35;;;2.65;;
58208;SDS011;44006;52.028;4.696;2023-04-24T12:33:06;15.02;;;3.10;;
58208;SDS011;44006;52.028;4.696;2023-04-24T12:35:32;14.85;;;3.50;;
58208;SDS011;44006;52.028;4.696;2023-04-24T12:38:12;13.90;;;3.25;;
58208;SDS011;44006;52.028;4.696;2023-04-24T12:40:38;15.73;;;2.92;;
58208;SDS011;44006;52.028;4.696;2023-04-24T12:43:12;20.42;;;3.60;;
58208;SDS011;44006;52.028;4.696;2023-04-24T12:45:37;17.00;;;3.22;;
58208;SDS011;44006;52.028;4.696;2023-04-24T12:48:03;12.52;;;3.10;;
58208;SDS011;44006;52.028;4.696;2023-04-24T12:50:28;17.40;;;3.20;;
58208;SDS011;44006;52.028;4.696;2023-04-24T12:52:53;16.50;;;3.78;;
58208;SDS011;44006;52.028;4.696;2023-04-24T12:55:18;17.10;;;4.30;;
58208;SDS011;44006;52.028;4.696;2023-04-24T12:57:44;18.58;;;3.78;;
58208;SDS011;44006;52.028;4.696;2023-04-24T13:00:10;15.48;;;3.38;;
58208;SDS011;44006;52.028;4.696;2023-04-24T13:02:36;13.60;;;2.83;;
58208;SDS011;44006;52.028;4.696;2023-04-24T13:05:01;16.92;;;3.33;;
58208;SDS011;44006;52.028;4.696;2023-04-24T13:07:27;14.63;;;3.15;;
58208;SDS011;44006;52.028;4.696;2023-04-24T13:09:52;13.90;;;3.30;;
58208;SDS011;44006;52.028;4.696;2023-04-24T13:12:18;15.52;;;3.58;;
58208;SDS011;44006;52.028;4.696;2023-04-24T13:14:43;16.05;;;3.47;;
58208;SDS011;44006;52.028;4.696;2023-04-24T13:17:09;14.05;;;3.13;;
58208;SDS011;44006;52.028;4.696;2023-04-24T13:19:44;18.70;;;4.18;;
58208;SDS011;44006;52.028;4.696;2023-04-24T13:22:10;19.92;;;3.92;;
58208;SDS011;44006;52.028;4.696;2023-04-24T13:24:36;12.38;;;3.83;;
58208;SDS011;44006;52.028;4.696;2023-04-24T13:27:02;15.32;;;3.38;;
58208;SDS011;44006;52.028;4.696;2023-04-24T13:29:27;14.25;;;3.95;;
58208;SDS011;44006;52.028;4.696;2023-04-24T13:31:53;9.90;;;3.15;;
58208;SDS011;44006;52.028;4.696;2023-04-24T13:34:22;15.32;;;3.40;;
58208;SDS011;44006;52.028;4.696;2023-04-24T13:36:48;14.30;;;3.55;;
58208;SDS011;44006;52.028;4.696;2023-04-24T13:39:14;18.95;;;4.00;;
58208;SDS011;44006;52.028;4.696;2023-04-24T13:41:39;16.65;;;3.72;;
58208;SDS011;44006;52.028;4.696;2023-04-24T13:44:06;11.32;;;3.22;;
58208;SDS011;44006;52.028;4.696;2023-04-24T13:46:32;14.32;;;3.00;;
58208;SDS011;44006;52.028;4.696;2023-04-24T13:48:57;11.73;;;3.22;;
58208;SDS011;44006;52.028;4.696;2023-04-24T13:51:23;12.45;;;3.55;;
58208;SDS011;44006;52.028;4.696;2023-04-24T13:53:48;15.73;;;3.47;;
58208;SDS011;44006;52.028;4.696;2023-04-24T13:56:13;15.07;;;3.63;;
58208;SDS011;44006;52.028;4.696;2023-04-24T13:58:39;11.60;;;3.25;;
58208;SDS011;44006;52.028;4.696;2023-04-24T14:01:04;13.77;;;3.55;;
58208;SDS011;44006;52.028;4.696;2023-04-24T14:03:30;12.48;;;3.75;;
58208;SDS011;44006;52.028;4.696;2023-04-24T14:05:55;16.42;;;4.50;;
58208;SDS011;44006;52.028;4.696;2023-04-24T14:08:21;16.58;;;4.03;;
58208;SDS011;44006;52.028;4.696;2023-04-24T14:10:46;13.35;;;3.90;;
58208;SDS011;44006;52.028;4.696;2023-04-24T14:13:11;17.52;;;3.95;;
58208;SDS011;44006;52.028;4.696;2023-04-24T14:15:37;17.63;;;4.22;;
58208;SDS011;44006;52.028;4.696;2023-04-24T14:18:02;16.88;;;4.15;;
58208;SDS011;44006;52.028;4.696;2023-04-24T14:20:28;16.88;;;4.68;;
58208;SDS011;44006;52.028;4.696;2023-04-24T14:22:54;11.85;;;4.38;;
58208;SDS011;44006;52.028;4.696;2023-04-24T14:25:20;20.27;;;4.53;;
58208;SDS011;44006;52.028;4.696;2023-04-24T14:27:45;16.17;;;4.55;;
58208;SDS011;44006;52.028;4.696;2023-04-24T14:30:12;13.82;;;4.53;;
58208;SDS011;44006;52.028;4.696;2023-04-24T14:32:38;26.80;;;5.40;;
58208;SDS011;44006;52.028;4.696;2023-04-24T14:35:03;17.80;;;5.07;;
58208;SDS011;44006;52.028;4.696;2023-04-24T14:37:29;20.80;;;5.20;;